Ammanford, United Kingdom
Current Conditions -  °F | °C
As of 4:50 PM on Friday 19 Dec 2014 (Local Time) from EGOP Reporting Station
Broken Clouds Broken Clouds  
Wind Chill: 41°   Ceiling: 4700
Heat Index: 48°   Visibility: 6mi
Dew Point: 41°   Wind: 21mph
Humidity: 76%   Direction: 270°W
Pressure: 30.18"   Gusts: NA
Location:  51.79°N, 3.99°W
Report Text: EGOP 191650Z AUTO 27018KT 9999 // BKN047/// 09/05 Q1022
Loading
Personal Weather Stations






























Interactive Weather Map New forecast layout! Learn more

10-Day Weather Forecast

Advertisements
Track Severe Weather on mobile